Time;durP1;ratioP1;P1;durP2;ratioP2;P2;SDS_P1;SDS_P2;PMS_P1;PMS_P2;Temp;Humidity;BMP_temperature;BMP_pressure;BME280_temperature;BME280_humidity;BME280_pressure;Samples;Min_cycle;Max_cycle;Signal;HPM_P1;HPM_P2
2022/07/14 00:01:41;;;;;;;;;;;19.30;66.30;;;18.55;61.50;96532.72;4177872;34;20206;-81
2022/07/14 00:04:10;;;;;;;;;;;19.20;66.10;;;18.53;61.40;96530.25;4154631;34;19956;-81
2022/07/14 00:06:40;;;;;;;;;;;19.20;66.20;;;18.54;61.23;96529.13;4172573;33;20127;-81
2022/07/14 00:09:08;;;;;;;;;;;19.20;66.10;;;18.54;61.58;96533.84;4172758;34;19904;-81
2022/07/14 00:11:37;;;;;;;;;;;19.20;66.10;;;18.53;61.56;96534.97;4198423;33;20007;-81
2022/07/14 00:14:06;;;;;;;;;;;19.20;66.30;;;18.53;61.67;96523.88;4200559;33;20253;-81
2022/07/14 00:16:34;;;;;;;;;;;19.20;66.20;;;18.53;61.42;96535.81;4154264;34;20123;-81
2022/07/14 00:19:03;;;;;;;;;;;19.20;66.30;;;18.52;61.48;96527.81;4154377;34;20245;-81
2022/07/14 00:21:31;;;;;;;;;;;19.20;66.30;;;18.52;61.55;96530.59;4176540;34;19903;-81
2022/07/14 00:24:01;;;;;;;;;;;19.20;66.30;;;18.51;61.60;96532.53;4154464;34;20207;-81
2022/07/14 00:26:30;;;;;;;;;;;19.20;66.30;;;18.50;61.65;96539.19;4154088;34;19910;-81
2022/07/14 00:28:59;;;;;;;;;;;19.20;66.30;;;18.50;61.44;96533.66;4178200;34;19904;-81
2022/07/14 00:31:27;;;;;;;;;;;19.20;66.20;;;18.49;61.77;96534.78;4176700;34;20220;-81
2022/07/14 00:33:56;;;;;;;;;;;19.20;66.40;;;18.50;61.71;96532.84;4154427;34;20130;-81
2022/07/14 00:36:26;;;;;;;;;;;19.20;66.40;;;18.49;61.55;96539.53;4154224;34;19903;-81
2022/07/14 00:38:55;;;;;;;;;;;19.20;66.30;;;18.49;61.80;96547.84;4154254;34;19903;-81
2022/07/14 00:41:25;;;;;;;;;;;19.20;66.40;;;18.48;61.75;96547.00;4153777;34;19910;-81
2022/07/14 00:43:53;;;;;;;;;;;19.20;66.30;;;18.48;61.50;96540.66;4177036;34;20214;-81
2022/07/14 00:46:22;;;;;;;;;;;19.20;66.20;;;18.46;61.37;96540.94;4177027;33;19903;-81
2022/07/14 00:48:51;;;;;;;;;;;19.10;66.30;;;18.46;61.89;96543.72;4154228;34;20164;-81
2022/07/14 00:51:19;;;;;;;;;;;19.10;66.40;;;18.46;61.45;96537.38;4153813;34;19903;-81
2022/07/14 00:53:52;;;;;;;;;;;19.10;66.40;;;18.45;61.70;96541.28;4154065;34;20066;-81
2022/07/14 00:56:21;;;;;;;;;;;19.10;66.50;;;18.46;61.73;96540.16;4176854;33;20108;-81
2022/07/14 00:58:51;;;;;;;;;;;19.10;66.50;;;18.45;61.64;96538.50;4154024;34;20363;-81
2022/07/14 01:01:19;;;;;;;;;;;19.10;66.40;;;18.44;61.76;96531.31;4162795;34;19903;-80
2022/07/14 01:03:48;;;;;;;;;;;19.10;66.40;;;18.43;61.85;96530.50;4176886;34;20134;-81
2022/07/14 01:06:16;;;;;;;;;;;19.10;66.40;;;18.42;61.83;96539.13;4199887;33;19911;-81
2022/07/14 01:08:45;;;;;;;;;;;19.10;66.40;;;18.42;61.76;96533.59;4153987;34;20045;-81
2022/07/14 01:11:13;;;;;;;;;;;19.10;66.40;;;18.43;61.25;96536.06;4153858;34;20177;-81
2022/07/14 01:13:42;;;;;;;;;;;19.10;66.40;;;18.40;61.67;96540.25;4176531;34;19903;-81
2022/07/14 01:16:12;;;;;;;;;;;19.10;66.40;;;18.40;61.59;96543.03;4177575;33;19933;-81
2022/07/14 01:18:41;;;;;;;;;;;19.10;66.50;;;18.40;61.46;96537.47;4177682;34;19903;-81
2022/07/14 01:21:11;;;;;;;;;;;19.10;66.40;;;18.39;61.71;96541.41;4176758;34;20032;-81
2022/07/14 01:23:39;;;;;;;;;;;19.10;66.40;;;18.39;61.78;96540.59;4153352;34;19930;-81
2022/07/14 01:26:08;;;;;;;;;;;19.10;66.60;;;18.38;61.49;96545.31;4153677;34;20014;-81
2022/07/14 01:28:37;;;;;;;;;;;19.10;66.40;;;18.38;61.71;96548.09;4153758;34;20130;-81
2022/07/14 01:31:06;;;;;;;;;;;19.10;66.50;;;18.38;61.88;96547.25;4154408;34;19903;-81
2022/07/14 01:33:34;;;;;;;;;;;19.10;66.60;;;18.37;61.67;96543.69;4155757;34;20118;-81
2022/07/14 01:36:03;;;;;;;;;;;19.10;66.50;;;18.36;61.72;96558.66;4156328;34;20069;-81
2022/07/14 01:38:33;;;;;;;;;;;19.00;66.40;;;18.36;61.85;96558.66;4156156;34;19946;-81
2022/07/14 01:41:02;;;;;;;;;;;19.10;66.50;;;18.36;61.81;96555.91;4156439;34;19903;-81
2022/07/14 01:43:32;;;;;;;;;;;19.10;66.60;;;18.36;62.06;96547.59;4155701;34;20087;-81
2022/07/14 01:46:01;;;;;;;;;;;19.10;66.50;;;18.35;61.75;96548.72;4156010;34;20146;-81
2022/07/14 01:48:30;;;;;;;;;;;19.00;66.50;;;18.34;61.68;96541.53;4179072;34;20018;-81
2022/07/14 01:50:59;;;;;;;;;;;19.00;66.40;;;18.34;61.77;96544.28;4156167;34;19911;-81
2022/07/14 01:53:27;;;;;;;;;;;19.00;66.60;;;18.33;61.72;96539.88;4155645;34;20045;-81
2022/07/14 01:55:58;;;;;;;;;;;19.00;66.50;;;18.33;61.87;96542.66;4155960;34;20119;-81
2022/07/14 01:58:28;;;;;;;;;;;19.00;66.60;;;18.33;61.63;96552.94;4155965;34;20018;-81
2022/07/14 02:03:39;;;;;;;;;;;19.00;66.60;;;18.32;61.81;96549.31;4127038;34;19904;-81
2022/07/14 02:06:08;;;;;;;;;;;19.00;66.60;;;18.32;61.45;96545.75;4151276;34;19904;-81
2022/07/14 02:08:36;;;;;;;;;;;19.00;66.40;;;18.31;61.97;96546.88;4128697;34;19904;-81
2022/07/14 02:13:53;;;;;;;;;;;19.00;66.60;;;18.31;62.16;96549.66;4156002;34;20162;-80
2022/07/14 02:16:22;;;;;;;;;;;19.00;66.80;;;18.30;62.15;96553.56;4178631;33;20152;-81
2022/07/14 02:18:51;;;;;;;;;;;19.00;66.80;;;18.30;61.79;96562.66;4178811;34;20117;-81
2022/07/14 02:21:20;;;;;;;;;;;19.00;66.70;;;18.28;61.92;96551.06;4155437;34;19903;-81
2022/07/14 02:23:49;;;;;;;;;;;18.90;66.80;;;18.28;62.09;96544.72;4178576;34;19910;-81
2022/07/14 02:26:20;;;;;;;;;;;18.90;66.80;;;18.28;61.98;96550.28;4155512;34;19911;-81
2022/07/14 02:28:49;;;;;;;;;;;18.90;66.90;;;18.28;61.79;96558.59;4178555;34;19903;-81
2022/07/14 02:31:18;;;;;;;;;;;19.00;66.80;;;18.28;61.99;96551.06;4154597;34;19903;-80
2022/07/14 02:33:46;;;;;;;;;;;18.90;66.60;;;18.27;61.83;96538.34;4177996;34;20094;-81
2022/07/14 02:36:15;;;;;;;;;;;18.90;66.60;;;18.26;62.00;96545.03;4155569;34;20147;-81
2022/07/14 02:38:44;;;;;;;;;;;18.90;66.70;;;18.27;62.08;96548.63;4155566;34;19903;-81
2022/07/14 02:41:13;;;;;;;;;;;19.00;66.90;;;18.25;61.77;96546.97;4178442;34;20155;-81
2022/07/14 02:43:44;;;;;;;;;;;19.00;66.60;;;18.25;62.08;96544.22;4177477;34;19910;-81
2022/07/14 02:46:13;;;;;;;;;;;19.00;66.90;;;18.26;61.78;96556.13;4178277;33;19903;-81
2022/07/14 02:48:41;;;;;;;;;;;19.00;66.80;;;18.25;61.88;96562.81;4155431;34;20062;-81
2022/07/14 02:51:10;;;;;;;;;;;19.00;66.80;;;18.24;62.02;96561.16;4178343;34;19910;-81
2022/07/14 02:53:39;;;;;;;;;;;19.00;66.90;;;18.24;61.76;96561.97;4154846;34;20267;-81
2022/07/14 02:56:08;;;;;;;;;;;19.00;66.60;;;18.23;62.07;96565.88;4178197;33;20340;-81
2022/07/14 02:58:39;;;;;;;;;;;19.00;66.80;;;18.23;62.07;96565.06;4155365;34;20329;-81
2022/07/14 03:01:10;;;;;;;;;;;18.90;66.90;;;18.22;62.05;96566.19;4155379;34;19903;-81
2022/07/14 03:03:39;;;;;;;;;;;19.00;66.80;;;18.23;62.06;96570.59;4155050;34;20211;-81
2022/07/14 03:06:10;;;;;;;;;;;19.00;66.90;;;18.23;62.39;96565.88;4178017;33;19918;-81
2022/07/14 03:08:39;;;;;;;;;;;18.90;67.00;;;18.22;61.78;96569.78;4155202;34;19910;-81
2022/07/14 03:11:07;;;;;;;;;;;19.00;66.80;;;18.22;61.90;96564.22;4155249;34;20028;-80
2022/07/14 03:13:37;;;;;;;;;;;18.90;66.90;;;18.22;61.70;96571.72;4200745;33;19903;-80
2022/07/14 03:16:09;;;;;;;;;;;18.90;66.90;;;18.23;62.29;96581.69;4177863;33;20326;-81
2022/07/14 03:18:41;;;;;;;;;;;18.90;66.80;;;18.23;61.93;96573.38;4178197;34;19910;-81
2022/07/14 03:21:11;;;;;;;;;;;18.90;66.80;;;18.23;62.05;96584.47;4178937;34;19910;-80
2022/07/14 03:23:42;;;;;;;;;;;18.90;67.00;;;18.22;62.08;96574.50;4154672;34;19969;-81
2022/07/14 03:26:16;;;;;;;;;;;18.90;66.90;;;18.22;62.06;96574.50;4177913;33;19910;-81
2022/07/14 03:28:45;;;;;;;;;;;18.90;66.90;;;18.23;62.29;96587.22;4154961;34;20110;-81
2022/07/14 03:31:14;;;;;;;;;;;18.90;67.10;;;18.23;62.10;96588.03;4200925;33;20141;-81
2022/07/14 03:33:44;;;;;;;;;;;19.00;66.80;;;18.23;62.13;96579.72;4154599;34;20014;-81
2022/07/14 03:36:13;;;;;;;;;;;19.00;66.90;;;18.23;62.13;96584.47;4178807;33;19903;-81
2022/07/14 03:38:42;;;;;;;;;;;18.90;66.90;;;18.24;61.94;96588.88;4154893;34;19983;-81
2022/07/14 03:41:13;;;;;;;;;;;18.90;66.90;;;18.23;62.02;96592.78;4155011;34;19918;-81
2022/07/14 03:43:43;;;;;;;;;;;18.90;66.80;;;18.22;62.06;96588.34;4177464;34;19910;-80
2022/07/14 03:46:12;;;;;;;;;;;19.00;67.10;;;18.22;61.85;96591.94;4177708;33;19903;-81
2022/07/14 03:48:47;;;;;;;;;;;18.90;66.80;;;18.23;61.96;96592.78;4154810;34;20064;-81
2022/07/14 03:51:16;;;;;;;;;;;18.90;66.90;;;18.22;62.07;96593.91;4155010;34;19903;-80
2022/07/14 03:53:45;;;;;;;;;;;18.90;66.90;;;18.22;62.39;96600.25;4154402;34;19903;-80
2022/07/14 03:56:14;;;;;;;;;;;18.90;67.00;;;18.21;62.35;96604.16;4200133;33;19961;-80
2022/07/14 03:58:46;;;;;;;;;;;18.90;67.10;;;18.22;62.05;96613.31;4177644;34;19910;-81
2022/07/14 04:01:17;;;;;;;;;;;18.90;67.00;;;18.22;62.25;96613.31;4200676;33;19903;-81
2022/07/14 04:03:51;;;;;;;;;;;18.90;66.90;;;18.22;62.03;96613.31;4154518;34;20218;-80
2022/07/14 04:06:20;;;;;;;;;;;18.90;66.90;;;18.23;62.07;96614.94;4154594;34;19903;-81
2022/07/14 04:08:49;;;;;;;;;;;19.00;66.80;;;18.23;61.61;96615.75;4154574;34;20321;-81
2022/07/14 04:11:18;;;;;;;;;;;18.90;66.60;;;18.23;61.92;96610.22;4177221;34;20161;-81
2022/07/14 04:13:48;;;;;;;;;;;18.90;66.70;;;18.23;61.80;96624.06;4154476;34;19903;-80
2022/07/14 04:16:17;;;;;;;;;;;19.00;66.60;;;18.25;61.67;96623.78;4187132;28;19907;-86
2022/07/14 04:18:52;;;;;;;;;;;18.90;66.50;;;18.24;61.67;96627.66;4149993;34;20085;-85
2022/07/14 04:21:21;;;;;;;;;;;18.90;66.40;;;18.25;61.39;96623.78;4127025;34;20116;-85
2022/07/14 04:23:49;;;;;;;;;;;18.90;66.20;;;18.27;61.39;96631.75;4149745;34;21434;-84
2022/07/14 04:26:18;;;;;;;;;;;18.90;66.30;;;18.25;61.42;96629.31;4127174;34;19904;-85
2022/07/14 04:28:47;;;;;;;;;;;18.90;66.10;;;18.25;61.23;96630.13;4149696;34;20218;-85
2022/07/14 04:31:16;;;;;;;;;;;19.00;66.10;;;18.28;61.65;96630.63;4127235;34;19904;-85
2022/07/14 04:33:46;;;;;;;;;;;18.90;66.30;;;18.27;61.72;96632.56;4126951;34;20133;-85
2022/07/14 04:36:16;;;;;;;;;;;19.00;66.30;;;18.27;61.47;96627.03;4127061;34;19910;-85
2022/07/14 04:38:46;;;;;;;;;;;19.00;66.30;;;18.29;61.49;96630.31;4149660;34;19911;-85
2022/07/14 04:41:14;;;;;;;;;;;19.00;66.10;;;18.33;61.57;96625.81;4126971;34;19903;-85
2022/07/14 04:43:43;;;;;;;;;;;19.00;66.00;;;18.36;61.18;96621.59;4126422;34;20063;-85
2022/07/14 04:46:12;;;;;;;;;;;19.00;65.80;;;18.38;60.85;96617.38;4126850;34;20317;-85
2022/07/14 04:54:29;;;;;;;;;;;19.10;65.50;;;18.49;60.83;96606.06;4108918;34;20239;-84
2022/07/14 04:57:27;;;;;;;;;;;19.20;65.60;;;18.53;61.28;96615.38;4127646;34;20133;-86
2022/07/14 04:59:55;;;;;;;;;;;19.20;65.90;;;18.56;61.89;96611.97;4122310;34;20073;-85
2022/07/14 05:02:24;;;;;;;;;;;19.30;66.60;;;18.57;61.95;96610.84;4099572;34;19904;-85
2022/07/14 05:04:54;;;;;;;;;;;19.30;67.00;;;18.59;62.21;96614.13;4099976;34;19912;-85
2022/07/14 05:07:24;;;;;;;;;;;19.30;66.90;;;18.62;62.02;96621.84;4121898;34;20123;-85
2022/07/14 05:09:57;;;;;;;;;;;19.30;66.90;;;18.65;62.19;96631.47;4122260;34;20245;-85
2022/07/14 05:12:27;;;;;;;;;;;19.30;67.00;;;18.66;62.08;96636.69;4121903;34;20139;-85
2022/07/14 05:14:58;;;;;;;;;;;19.40;66.90;;;18.68;62.03;96634.44;4099979;34;19987;-85
2022/07/14 05:17:29;;;;;;;;;;;19.40;66.90;;;18.69;61.76;96633.31;4099569;34;23052;-86
2022/07/14 05:20:02;;;;;;;;;;;19.40;66.70;;;18.70;62.16;96634.16;4099929;34;19980;-86
2022/07/14 05:22:37;;;;;;;;;;;19.40;66.80;;;18.70;61.83;96639.69;4099342;34;19904;-86
2022/07/14 05:25:09;;;;;;;;;;;19.40;66.80;;;18.73;62.29;96646.56;4099797;34;19904;-85
2022/07/14 05:27:38;;;;;;;;;;;19.40;66.70;;;18.73;61.89;96639.03;4121959;34;19915;-85
2022/07/14 05:30:08;;;;;;;;;;;19.40;66.60;;;18.73;61.86;96644.59;4099778;34;20166;-85
2022/07/14 05:32:38;;;;;;;;;;;19.40;66.60;;;18.73;61.92;96643.78;4099278;34;19904;-85
2022/07/14 05:35:09;;;;;;;;;;;19.40;66.50;;;18.74;61.83;96637.09;4122066;34;19912;-85
2022/07/14 05:37:40;;;;;;;;;;;19.40;66.60;;;18.74;61.80;96646.22;4122030;34;19911;-84
2022/07/14 05:40:11;;;;;;;;;;;19.40;66.60;;;18.74;61.80;96646.22;4099734;34;19958;-86
2022/07/14 05:42:39;;;;;;;;;;;19.40;66.70;;;18.74;61.92;96645.44;4099236;34;19904;-85
2022/07/14 05:45:10;;;;;;;;;;;19.40;66.60;;;18.75;62.15;96644.28;4102842;34;19904;-85
2022/07/14 05:47:41;;;;;;;;;;;19.40;66.60;;;18.77;61.83;96644.81;4148875;34;19911;-85
2022/07/14 05:50:11;;;;;;;;;;;19.40;66.40;;;18.79;61.96;96645.28;4126269;34;19903;-85
2022/07/14 05:52:43;;;;;;;;;;;19.50;66.60;;;18.79;62.16;96640.56;4126053;34;19911;-85
2022/07/14 05:55:12;;;;;;;;;;;19.50;66.60;;;18.81;61.51;96643.88;4126450;34;20074;-84
2022/07/14 05:57:41;;;;;;;;;;;19.50;66.40;;;18.84;61.64;96657.13;4126668;34;19911;-84
2022/07/14 06:00:12;;;;;;;;;;;19.50;66.50;;;18.86;61.91;96645.69;4126467;34;20131;-84
2022/07/14 06:02:43;;;;;;;;;;;19.60;66.40;;;18.89;61.39;96642.31;4148390;34;19910;-85
2022/07/14 06:05:17;;;;;;;;;;;19.60;66.10;;;18.92;61.60;96638.88;4126304;34;19911;-85
2022/07/14 06:07:47;;;;;;;;;;;19.60;66.20;;;18.95;61.35;96643.03;4148863;34;19904;-85
2022/07/14 06:10:17;;;;;;;;;;;19.60;66.00;;;18.98;61.32;96643.22;4126431;34;19904;-86
2022/07/14 06:12:48;;;;;;;;;;;19.60;66.00;;;19.00;61.32;96646.50;4148485;34;19910;-86
2022/07/14 06:15:18;;;;;;;;;;;19.70;66.20;;;19.04;61.26;96648.66;4148682;34;20126;-85
2022/07/14 06:17:46;;;;;;;;;;;19.70;66.00;;;19.06;61.28;96643.56;4126361;34;20140;-84
2022/07/14 06:20:16;;;;;;;;;;;19.70;66.10;;;19.07;61.07;96642.44;4128516;34;19904;-84
2022/07/14 06:22:47;;;;;;;;;;;19.80;65.80;;;19.09;61.41;96640.19;4128148;34;20286;-86
2022/07/14 06:25:16;;;;;;;;;;;19.80;65.90;;;19.10;61.26;96639.88;4140530;34;19903;-84
2022/07/14 06:27:46;;;;;;;;;;;19.80;65.90;;;19.10;61.07;96631.56;4155629;34;19903;-85
2022/07/14 06:30:15;;;;;;;;;;;19.80;65.80;;;19.10;61.37;96637.09;4155630;34;20007;-85
2022/07/14 06:32:45;;;;;;;;;;;19.80;65.90;;;19.11;61.06;96635.13;4178053;34;19910;-85
2022/07/14 06:35:16;;;;;;;;;;;19.90;65.90;;;19.12;61.17;96628.47;4178405;34;19904;-85
2022/07/14 06:37:45;;;;;;;;;;;19.90;65.80;;;19.14;60.87;96635.31;4155471;34;20032;-86
2022/07/14 06:40:16;;;;;;;;;;;19.80;65.60;;;19.15;60.69;96634.19;4155503;34;19959;-86
2022/07/14 06:42:47;;;;;;;;;;;19.80;65.50;;;19.16;61.09;96632.25;4177950;34;19903;-85
2022/07/14 06:45:26;;;;;;;;;;;19.80;65.50;;;19.17;60.83;96625.53;4155405;34;19910;-85
2022/07/14 06:47:57;;;;;;;;;;;19.80;65.30;;;19.17;60.78;96617.22;4178292;34;19903;-86
2022/07/14 06:50:26;;;;;;;;;;;19.80;65.20;;;19.20;60.93;96624.91;4178373;34;20237;-86
2022/07/14 06:52:55;;;;;;;;;;;19.90;65.40;;;19.21;60.84;96611.88;4177918;34;19903;-85
2022/07/14 06:55:25;;;;;;;;;;;19.90;65.30;;;19.22;60.89;96616.28;4155244;34;20060;-86
2022/07/14 06:57:54;;;;;;;;;;;19.90;65.30;;;19.23;60.82;96612.38;4155347;34;19911;-86
2022/07/14 07:00:23;;;;;;;;;;;19.90;65.30;;;19.26;60.75;96617.28;4155310;34;20098;-86
2022/07/14 07:02:51;;;;;;;;;;;19.90;65.20;;;19.28;60.54;96607.50;4177768;34;20162;-86
2022/07/14 07:08:06;;;;;;;;;;;20.00;65.10;;;19.32;60.40;96594.63;4155109;34;20245;-86
2022/07/14 07:10:40;;;;;;;;;;;20.00;64.90;;;19.36;60.36;96600.38;4177973;34;19983;-86
2022/07/14 07:13:09;;;;;;;;;;;20.00;64.90;;;19.39;60.24;96601.69;4177610;34;20125;-86
2022/07/14 07:15:38;;;;;;;;;;;20.10;64.80;;;19.41;60.36;96597.44;4178036;34;19903;-86
2022/07/14 07:18:07;;;;;;;;;;;20.00;64.70;;;19.41;60.17;96602.19;4155049;34;20047;-85
2022/07/14 07:20:36;;;;;;;;;;;20.00;64.60;;;19.45;59.84;96594.84;4178066;34;19952;-85
2022/07/14 07:23:05;;;;;;;;;;;20.10;64.60;;;19.46;59.98;96593.72;4136429;34;20124;-84
2022/07/14 07:25:33;;;;;;;;;;;20.10;64.40;;;19.47;60.05;96590.63;4127951;34;19903;-86
2022/07/14 07:28:03;;;;;;;;;;;20.10;64.40;;;19.47;59.90;96589.78;4127724;34;20138;-85
2022/07/14 07:30:32;;;;;;;;;;;20.10;64.40;;;19.50;59.59;96589.16;4150056;34;19904;-85
2022/07/14 07:33:01;;;;;;;;;;;20.20;64.30;;;19.53;59.76;96593.25;4149970;34;20209;-86
2022/07/14 07:35:30;;;;;;;;;;;20.20;64.20;;;19.53;59.96;96599.63;4127720;34;19904;-85
2022/07/14 07:37:58;;;;;;;;;;;20.10;64.30;;;19.52;59.66;96597.16;4150213;34;19904;-85
2022/07/14 07:40:27;;;;;;;;;;;20.20;64.20;;;19.53;59.63;96594.09;4127634;34;19960;-85
2022/07/14 07:42:55;;;;;;;;;;;20.20;64.20;;;19.54;59.51;96595.72;4127202;34;20151;-85
2022/07/14 07:45:25;;;;;;;;;;;20.20;64.10;;;19.55;59.84;96590.97;4150207;34;19904;-85
2022/07/14 07:48:04;;;;;;;;;;;20.20;64.10;;;19.56;59.59;96587.88;4127473;34;19903;-85
2022/07/14 07:50:39;;;;;;;;;;;20.20;63.90;;;19.58;59.66;96593.13;4127395;34;19904;-85
2022/07/14 07:53:15;;;;;;;;;;;20.20;64.00;;;19.59;59.56;96592.78;4126904;34;19911;-85
2022/07/14 07:55:57;;;;;;;;;;;20.20;64.00;;;19.60;59.34;96588.88;4127076;34;19911;-85
2022/07/14 07:58:40;;;;;;;;;;;20.30;64.00;;;19.62;59.44;96585.81;4127440;34;20113;-86
2022/07/14 08:01:16;;;;;;;;;;;20.30;63.90;;;19.63;59.27;96585.47;4150118;34;19911;-86
2022/07/14 08:04:00;;;;;;;;;;;20.30;64.00;;;19.65;59.28;96589.88;4127373;34;20066;-86
2022/07/14 08:06:29;;;;;;;;;;;20.30;63.90;;;19.66;59.59;96585.97;4193135;33;19910;-86
2022/07/14 08:09:15;;;;;;;;;;;;;;;;;;;;;
2022/07/14 08:11:54;;;;;;;;;;;20.30;63.80;;;19.68;59.23;96589.25;4130990;34;19903;-86
2022/07/14 08:17:28;;;;;;;;;;;20.30;63.80;;;19.68;59.35;96575.38;4177134;34;19903;-85
2022/07/14 08:20:12;;;;;;;;;;;20.40;63.80;;;19.68;59.60;96575.38;4154263;34;19904;-86
2022/07/14 08:22:52;;;;;;;;;;;20.30;63.80;;;19.67;59.56;96577.31;4177624;34;20002;-86
2022/07/14 08:25:29;;;;;;;;;;;20.30;63.90;;;19.65;59.61;96571.25;4154195;34;19910;-86
2022/07/14 08:28:03;;;;;;;;;;;20.30;63.80;;;19.64;59.42;96580.72;4177983;34;20115;-86
2022/07/14 08:30:35;;;;;;;;;;;20.30;63.80;;;19.62;59.52;96569.13;4177029;34;19903;-86
2022/07/14 08:33:23;;;;;;;;;;;20.30;64.00;;;19.61;59.90;96575.81;4177055;33;19910;-85
2022/07/14 08:35:55;;;;;;;;;;;20.30;64.00;;;19.59;59.81;96567.81;4177055;34;19910;-86
2022/07/14 08:38:30;;;;;;;;;;;20.30;64.10;;;19.57;60.02;96567.28;4154637;34;19904;-85
2022/07/14 08:41:29;;;;;;;;;;;20.30;64.20;;;19.58;59.74;96568.13;4154245;34;19903;-85
2022/07/14 08:44:05;;;;;;;;;;;20.30;64.30;;;19.57;60.07;96567.28;4177008;34;20222;-85
2022/07/14 08:46:37;;;;;;;;;;;20.20;64.10;;;19.57;60.10;96572.84;4153988;34;19910;-85
2022/07/14 08:49:15;;;;;;;;;;;20.30;65.20;;;19.57;60.10;96572.03;4140345;34;19915;-85
2022/07/14 08:51:58;;;;;;;;;;;20.30;64.30;;;19.55;60.12;96558.50;4126839;34;19904;-85
2022/07/14 08:54:28;;;;;;;;;;;20.30;64.40;;;19.56;60.00;96570.41;4126971;34;20044;-85
2022/07/14 08:57:00;;;;;;;;;;;20.30;64.40;;;19.54;60.26;96570.72;4127008;34;19923;-85
2022/07/14 08:59:45;;;;;;;;;;;20.30;64.60;;;19.54;60.16;96567.97;4149425;34;19904;-86
2022/07/14 09:02:25;;;;;;;;;;;20.30;64.50;;;19.54;60.29;96570.72;4149093;34;20172;-85
2022/07/14 09:05:03;;;;;;;;;;;20.20;64.40;;;19.53;60.21;96565.47;4126887;34;19975;-85
2022/07/14 09:07:40;;;;;;;;;;;20.20;64.40;;;19.53;60.28;96573.81;4126679;34;19904;-85
2022/07/14 09:10:11;;;;;;;;;;;20.30;64.60;;;19.53;60.20;96577.44;4126881;34;19904;-85
2022/07/14 09:15:54;;;;;;;;;;;20.20;64.60;;;19.52;60.16;96566.63;4149339;34;19929;-85
2022/07/14 09:18:31;;;;;;;;;;;20.20;64.60;;;19.51;60.33;96571.38;4126627;34;19903;-86
2022/07/14 09:21:03;;;;;;;;;;;20.20;64.60;;;19.51;60.39;96567.75;4126828;34;19903;-85
2022/07/14 09:23:42;;;;;;;;;;;20.20;64.60;;;19.51;60.40;96568.59;4126055;34;20028;-86
2022/07/14 09:26:30;;;;;;;;;;;20.20;65.40;;;19.51;60.55;96573.31;4126576;34;19923;-85
2022/07/14 09:33:55;;;;;;;;;;;20.20;64.70;;;19.50;60.31;96561.41;4154252;34;19899;-85
2022/07/14 09:36:31;;;;;;;;;;;20.20;64.70;;;19.49;60.61;96562.53;4149206;34;19910;-85
2022/07/14 09:39:08;;;;;;;;;;;20.20;64.90;;;19.49;60.32;96562.53;4126976;34;19904;-85
2022/07/14 09:42:00;;;;;;;;;;;20.20;64.90;;;19.47;60.65;96559.25;4149630;34;19903;-86
2022/07/14 09:44:33;;;;;;;;;;;20.20;64.90;;;19.48;60.54;96555.34;4148540;34;19911;-85
2022/07/14 09:52:05;;;;;;;;;;;20.20;64.90;;;19.46;60.43;96549.28;4003233;35;19942;-85
2022/07/14 09:54:53;;;;;;;;;;;20.10;65.00;;;19.46;60.71;96552.91;3977150;35;19906;-85
2022/07/14 10:01:39;;;;;;;;;;;20.10;65.10;;;19.44;60.67;96546.00;3996870;35;19997;-86
2022/07/14 10:04:23;;;;;;;;;;;20.20;65.20;;;19.44;60.66;96546.00;4018368;35;19913;-86
2022/07/14 10:06:54;;;;;;;;;;;20.10;65.20;;;19.44;60.55;96546.00;3976386;35;19906;-87
2022/07/14 10:09:27;;;;;;;;;;;20.10;65.20;;;19.41;60.27;96546.66;4022110;34;19904;-86
2022/07/14 10:12:00;;;;;;;;;;;20.10;65.20;;;19.43;61.05;96547.13;4151812;34;20086;-86
2022/07/14 10:14:44;;;;;;;;;;;20.10;65.20;;;19.41;60.75;96543.88;4151300;34;20173;-85
2022/07/14 10:17:13;;;;;;;;;;;20.10;65.30;;;19.42;61.01;96542.75;4169596;28;20346;-80
2022/07/14 10:19:42;;;;;;;;;;;20.10;65.30;;;19.42;60.51;96539.97;4234742;33;19903;-81
2022/07/14 10:26:38;;;;;;;;;;;20.10;65.30;;;19.40;60.99;96533.91;4235584;33;19898;-81
2022/07/14 10:29:06;;;;;;;;;;;20.10;65.30;;;19.39;60.71;96527.53;4234575;33;19909;-81
2022/07/14 10:31:44;;;;;;;;;;;20.10;65.30;;;19.39;61.02;96527.53;4210478;33;20140;-81
2022/07/14 10:34:20;;;;;;;;;;;20.10;65.60;;;19.39;61.05;96532.28;4210590;33;19981;-81
2022/07/14 10:36:53;;;;;;;;;;;20.10;65.50;;;19.39;60.93;96523.94;4210882;33;20179;-81
2022/07/14 10:39:26;;;;;;;;;;;20.10;65.50;;;19.39;61.01;96515.63;4234472;33;19986;-81
2022/07/14 10:42:08;;;;;;;;;;;20.10;65.50;;;19.38;60.70;96514.78;4210345;33;19925;-81
2022/07/14 10:44:37;;;;;;;;;;;20.10;65.60;;;19.37;60.92;96518.69;4234384;33;20090;-81
2022/07/14 10:47:09;;;;;;;;;;;20.10;65.60;;;19.36;60.82;96511.53;4210906;33;19969;-80
2022/07/14 10:50:09;;;;;;;;;;;20.00;65.40;;;19.38;61.28;96519.53;4210876;33;19909;-80
2022/07/14 10:52:38;;;;;;;;;;;20.10;65.60;;;19.38;60.90;96508.44;4153944;34;19985;-80
2022/07/14 10:55:15;;;;;;;;;;;20.10;65.60;;;19.38;61.31;96511.22;4193640;33;19939;-80
2022/07/14 10:58:29;;;;;;;;;;;20.10;65.70;;;19.37;61.27;96509.56;4235218;33;19909;-81
2022/07/14 11:01:01;;;;;;;;;;;20.10;65.70;;;19.38;61.38;96498.13;4210703;33;19952;-80
2022/07/14 11:03:50;;;;;;;;;;;20.10;65.80;;;19.37;61.07;96490.13;4233200;33;19996;-81
2022/07/14 11:06:19;;;;;;;;;;;20.10;65.90;;;19.36;61.68;96489.34;4234150;33;20459;-81
2022/07/14 11:09:41;;;;;;;;;;;20.10;65.90;;;19.36;61.50;96485.72;4234058;33;19962;-80
2022/07/14 11:12:11;;;;;;;;;;;20.10;65.90;;;19.36;61.19;96494.03;4210127;33;19902;-81
2022/07/14 11:14:42;;;;;;;;;;;20.10;65.90;;;19.35;61.15;96486.84;4234380;33;19906;-81
2022/07/14 11:17:43;;;;;;;;;;;20.10;66.00;;;19.36;61.22;96480.16;4182597;33;19903;-81
2022/07/14 11:20:12;;;;;;;;;;;20.10;66.00;;;19.35;61.38;96482.13;4205941;33;20141;-81
2022/07/14 11:22:41;;;;;;;;;;;20.10;65.90;;;19.36;61.20;96477.38;4205271;33;19903;-80
2022/07/14 11:25:24;;;;;;;;;;;20.10;66.00;;;19.35;61.27;96476.59;4205770;33;19910;-80
2022/07/14 11:27:53;;;;;;;;;;;20.10;66.00;;;19.36;61.24;96474.63;4205747;33;19903;-81
2022/07/14 11:30:29;;;;;;;;;;;20.10;66.00;;;19.36;61.06;96471.84;4205742;33;19902;-80
2022/07/14 11:33:04;;;;;;;;;;;20.10;66.00;;;19.36;61.33;96469.06;4205229;33;19902;-81
2022/07/14 11:38:38;;;;;;;;;;;20.10;65.90;;;19.37;61.20;96467.94;4205688;33;20126;-81
2022/07/14 11:41:10;;;;;;;;;;;20.10;65.90;;;19.38;61.31;96475.13;4205612;33;20252;-81
2022/07/14 11:43:46;;;;;;;;;;;20.00;65.80;;;19.38;61.45;96475.13;4182080;33;20025;-81
2022/07/14 11:46:20;;;;;;;;;;;20.10;65.90;;;19.38;61.37;96470.38;4205520;33;19902;-81
2022/07/14 11:48:50;;;;;;;;;;;20.10;65.90;;;19.38;61.27;96458.47;4182398;33;20368;-81
2022/07/14 11:51:21;;;;;;;;;;;20.10;65.90;;;19.39;61.30;96463.69;4206475;33;19921;-81
2022/07/14 11:53:55;;;;;;;;;;;20.10;65.90;;;19.39;61.21;96458.13;4182094;33;20362;-81
2022/07/14 11:56:24;;;;;;;;;;;20.10;65.90;;;19.40;61.15;96461.75;4206596;33;20028;-81
2022/07/14 11:58:53;;;;;;;;;;;20.10;65.80;;;19.40;61.50;96456.19;4205504;33;20051;-81
2022/07/14 12:01:23;;;;;;;;;;;20.10;65.90;;;19.39;61.34;96462.88;4205031;33;19910;-81
2022/07/14 12:03:52;;;;;;;;;;;20.10;65.90;;;19.40;61.19;96453.41;4182102;33;19903;-81
2022/07/14 12:06:20;;;;;;;;;;;20.10;65.80;;;19.40;61.26;96456.19;4205366;33;19910;-82
2022/07/14 12:08:49;;;;;;;;;;;20.10;65.90;;;19.40;61.44;96453.41;4182211;33;19909;-81
2022/07/14 12:11:17;;;;;;;;;;;20.10;65.90;;;19.40;61.16;96456.19;4205261;33;20117;-81
2022/07/14 12:13:51;;;;;;;;;;;20.10;65.90;;;19.41;61.39;96457.81;4204964;33;20029;-81
2022/07/14 12:16:19;;;;;;;;;;;20.10;65.90;;;19.41;61.57;96455.84;4181062;33;19903;-81
2022/07/14 12:18:52;;;;;;;;;;;20.10;65.90;;;19.41;61.38;96452.28;4205387;33;19910;-81
2022/07/14 12:21:33;;;;;;;;;;;20.10;66.00;;;19.43;61.40;96447.19;4204955;33;20327;-81
2022/07/14 12:24:01;;;;;;;;;;;20.10;65.90;;;19.43;61.39;96444.41;4206059;33;19910;-81